Terminal Aerodrome Forecast
Issued by NWS

Home | Current Version | Previous Version | Text Only | Print | Product List | Glossary On
Versions: 1 2 3 4 5 6 7 8 9 10 11 12 13 14 15 16 17 18 19 20 21
000
FTUS41 KBTV 012300
TAFMPV
TAF
KMPV 012324Z 0200/0224 VRB02KT P6SM FEW050 SCT200
     FM020600 VRB02KT 3SM BR FEW001 FEW050 SCT200
     FM021200 VRB03KT P6SM SCT040 SCT150
     FM021500 18006KT P6SM VCSH SCT040 SCT150=

USA.gov is the U.S. government's official web portal to all federal, state and local government web resources and services.